sensor_id;sensor_type;location;lat;lon;timestamp;pressure;altitude;pressure_sealevel;temperature;humidity
7802;BME280;3945;48.952;9.506;2023-03-21T00:00:12;98173.31;;;9.31;84.87
7802;BME280;3945;48.952;9.506;2023-03-21T00:02:41;98175.16;;;9.31;85.16
7802;BME280;3945;48.952;9.506;2023-03-21T00:05:07;98167.56;;;9.34;84.84
7802;BME280;3945;48.952;9.506;2023-03-21T00:07:33;98171.03;;;9.35;84.96
7802;BME280;3945;48.952;9.506;2023-03-21T00:10:00;98174.25;;;9.37;84.81
7802;BME280;3945;48.952;9.506;2023-03-21T00:12:26;98168.38;;;9.35;85.19
7802;BME280;3945;48.952;9.506;2023-03-21T00:14:56;98168.38;;;9.35;84.84
7802;BME280;3945;48.952;9.506;2023-03-21T00:17:28;98165.13;;;9.33;85.24
7802;BME280;3945;48.952;9.506;2023-03-21T00:19:58;98168.50;;;9.28;85.52
7802;BME280;3945;48.952;9.506;2023-03-21T00:22:24;98165.69;;;9.23;85.62
7802;BME280;3945;48.952;9.506;2023-03-21T00:24:51;98166.72;;;9.22;85.53
7802;BME280;3945;48.952;9.506;2023-03-21T00:27:17;98169.84;;;9.19;85.58
7802;BME280;3945;48.952;9.506;2023-03-21T00:29:44;98163.13;;;9.17;86.02
7802;BME280;3945;48.952;9.506;2023-03-21T00:32:13;98163.00;;;9.12;85.79
7802;BME280;3945;48.952;9.506;2023-03-21T00:34:39;98167.94;;;9.08;86.23
7802;BME280;3945;48.952;9.506;2023-03-21T00:37:08;98159.97;;;9.08;85.51
7802;BME280;3945;48.952;9.506;2023-03-21T00:39:36;98153.63;;;9.09;86.28
7802;BME280;3945;48.952;9.506;2023-03-21T00:42:02;98158.59;;;9.06;86.27
7802;BME280;3945;48.952;9.506;2023-03-21T00:44:29;98149.09;;;8.98;86.32
7802;BME280;3945;48.952;9.506;2023-03-21T00:47:00;98147.69;;;8.95;86.30
7802;BME280;3945;48.952;9.506;2023-03-21T00:49:27;98145.50;;;8.92;86.11
7802;BME280;3945;48.952;9.506;2023-03-21T00:51:58;98139.94;;;8.94;85.69
7802;BME280;3945;48.952;9.506;2023-03-21T00:54:26;98134.41;;;8.95;85.62
7802;BME280;3945;48.952;9.506;2023-03-21T00:56:52;98129.94;;;8.96;85.72
7802;BME280;3945;48.952;9.506;2023-03-21T00:59:18;98129.72;;;8.97;85.78
7802;BME280;3945;48.952;9.506;2023-03-21T01:01:45;98127.88;;;8.98;85.80
7802;BME280;3945;48.952;9.506;2023-03-21T01:04:12;98123.81;;;8.95;85.88
7802;BME280;3945;48.952;9.506;2023-03-21T01:06:41;98126.47;;;8.95;86.54
7802;BME280;3945;48.952;9.506;2023-03-21T01:09:09;98125.09;;;8.93;86.17
7802;BME280;3945;48.952;9.506;2023-03-21T01:11:38;98121.84;;;8.91;86.61
7802;BME280;3945;48.952;9.506;2023-03-21T01:14:06;98119.78;;;8.93;86.10
7802;BME280;3945;48.952;9.506;2023-03-21T01:16:32;98121.16;;;8.95;85.74
7802;BME280;3945;48.952;9.506;2023-03-21T01:18:58;98127.06;;;8.97;86.47
7802;BME280;3945;48.952;9.506;2023-03-21T01:21:25;98121.53;;;8.99;85.99
7802;BME280;3945;48.952;9.506;2023-03-21T01:23:51;98120.72;;;8.98;86.33
7802;BME280;3945;48.952;9.506;2023-03-21T01:26:18;98115.19;;;9.00;85.63
7802;BME280;3945;48.952;9.506;2023-03-21T01:28:46;98118.63;;;9.00;85.92
7802;BME280;3945;48.952;9.506;2023-03-21T01:31:13;98123.16;;;9.00;86.28
7802;BME280;3945;48.952;9.506;2023-03-21T01:33:40;98118.88;;;8.99;86.50
7802;BME280;3945;48.952;9.506;2023-03-21T01:36:15;98115.63;;;8.97;86.44
7802;BME280;3945;48.952;9.506;2023-03-21T01:38:42;98112.97;;;8.97;86.06
7802;BME280;3945;48.952;9.506;2023-03-21T01:41:23;98117.47;;;8.96;86.53
7802;BME280;3945;48.952;9.506;2023-03-21T01:43:51;98107.06;;;8.95;86.04
7802;BME280;3945;48.952;9.506;2023-03-21T01:46:28;98112.59;;;8.93;86.96
7802;BME280;3945;48.952;9.506;2023-03-21T01:48:58;98106.72;;;8.91;86.78
7802;BME280;3945;48.952;9.506;2023-03-21T01:51:25;98098.16;;;8.89;86.95
7802;BME280;3945;48.952;9.506;2023-03-21T01:53:52;98099.19;;;8.88;85.99
7802;BME280;3945;48.952;9.506;2023-03-21T01:56:21;98097.56;;;8.87;86.29
7802;BME280;3945;48.952;9.506;2023-03-21T01:58:48;98099.41;;;8.87;86.43
7802;BME280;3945;48.952;9.506;2023-03-21T02:01:16;98091.25;;;8.88;86.57
7802;BME280;3945;48.952;9.506;2023-03-21T02:03:46;98095.75;;;8.88;86.42
7802;BME280;3945;48.952;9.506;2023-03-21T02:06:19;98093.09;;;8.88;86.90
7802;BME280;3945;48.952;9.506;2023-03-21T02:08:47;98089.41;;;8.89;86.80
7802;BME280;3945;48.952;9.506;2023-03-21T02:11:14;98087.78;;;8.88;87.12
7802;BME280;3945;48.952;9.506;2023-03-21T02:13:41;98092.88;;;8.89;87.27
7802;BME280;3945;48.952;9.506;2023-03-21T02:16:08;98087.78;;;8.88;87.10
7802;BME280;3945;48.952;9.506;2023-03-21T02:18:39;98088.00;;;8.86;87.10
7802;BME280;3945;48.952;9.506;2023-03-21T02:21:17;98084.78;;;8.84;87.29
7802;BME280;3945;48.952;9.506;2023-03-21T02:24:00;98088.25;;;8.85;87.27
7802;BME280;3945;48.952;9.506;2023-03-21T02:26:37;98083.97;;;8.84;87.12
7802;BME280;3945;48.952;9.506;2023-03-21T02:29:11;98074.16;;;8.84;86.85
7802;BME280;3945;48.952;9.506;2023-03-21T02:31:46;98077.38;;;8.86;87.55
7802;BME280;3945;48.952;9.506;2023-03-21T02:37:14;98075.69;;;8.92;86.72
7802;BME280;3945;48.952;9.506;2023-03-21T02:39:47;98076.25;;;8.94;86.95
7802;BME280;3945;48.952;9.506;2023-03-21T02:42:16;98073.03;;;8.92;86.75
7802;BME280;3945;48.952;9.506;2023-03-21T02:44:46;98065.06;;;8.92;87.05
7802;BME280;3945;48.952;9.506;2023-03-21T02:47:16;98073.84;;;8.92;87.30
7802;BME280;3945;48.952;9.506;2023-03-21T02:49:45;98070.38;;;8.92;86.78
7802;BME280;3945;48.952;9.506;2023-03-21T02:52:17;98072.44;;;8.90;86.85
7802;BME280;3945;48.952;9.506;2023-03-21T02:54:45;98068.16;;;8.89;87.37
7802;BME280;3945;48.952;9.506;2023-03-21T02:57:13;98059.41;;;8.88;87.00
7802;BME280;3945;48.952;9.506;2023-03-21T02:59:41;98063.91;;;8.88;86.89
7802;BME280;3945;48.952;9.506;2023-03-21T03:02:07;98057.56;;;8.89;86.78
7802;BME280;3945;48.952;9.506;2023-03-21T03:04:34;98063.09;;;8.87;85.99
7802;BME280;3945;48.952;9.506;2023-03-21T03:07:03;98056.16;;;8.86;85.90
7802;BME280;3945;48.952;9.506;2023-03-21T03:09:36;98060.09;;;8.84;86.69
7802;BME280;3945;48.952;9.506;2023-03-21T03:12:06;98057.66;;;8.82;86.43
7802;BME280;3945;48.952;9.506;2023-03-21T03:14:38;98061.13;;;8.83;86.34
7802;BME280;3945;48.952;9.506;2023-03-21T03:17:13;98052.56;;;8.81;87.07
7802;BME280;3945;48.952;9.506;2023-03-21T03:19:43;98053.38;;;8.81;87.07
7802;BME280;3945;48.952;9.506;2023-03-21T03:22:13;98053.84;;;8.78;87.01
7802;BME280;3945;48.952;9.506;2023-03-21T03:24:43;98062.63;;;8.79;87.13
7802;BME280;3945;48.952;9.506;2023-03-21T03:27:12;98057.31;;;8.79;86.64
7802;BME280;3945;48.952;9.506;2023-03-21T03:29:41;98057.88;;;8.81;87.02
7802;BME280;3945;48.952;9.506;2023-03-21T03:32:10;98060.53;;;8.81;86.42
7802;BME280;3945;48.952;9.506;2023-03-21T03:34:38;98055.22;;;8.81;86.43
7802;BME280;3945;48.952;9.506;2023-03-21T03:37:06;98052.56;;;8.81;86.29
7802;BME280;3945;48.952;9.506;2023-03-21T03:39:34;98052.78;;;8.79;86.90
7802;BME280;3945;48.952;9.506;2023-03-21T03:42:04;98045.63;;;8.80;86.53
7802;BME280;3945;48.952;9.506;2023-03-21T03:44:32;98054.88;;;8.77;87.07
7802;BME280;3945;48.952;9.506;2023-03-21T03:46:59;98055.91;;;8.76;87.17
7802;BME280;3945;48.952;9.506;2023-03-21T03:49:28;98048.38;;;8.73;87.57
7802;BME280;3945;48.952;9.506;2023-03-21T03:51:57;98050.81;;;8.75;87.04
7802;BME280;3945;48.952;9.506;2023-03-21T03:54:27;98052.66;;;8.74;87.57
7802;BME280;3945;48.952;9.506;2023-03-21T03:56:54;98047.34;;;8.74;87.50
7802;BME280;3945;48.952;9.506;2023-03-21T03:59:23;98045.72;;;8.73;87.47
7802;BME280;3945;48.952;9.506;2023-03-21T04:01:49;98039.28;;;8.69;87.50
7802;BME280;3945;48.952;9.506;2023-03-21T04:04:16;98047.09;;;8.64;87.58
7802;BME280;3945;48.952;9.506;2023-03-21T04:06:42;98042.84;;;8.63;87.26
7802;BME280;3945;48.952;9.506;2023-03-21T04:09:15;98050.19;;;8.61;87.37
7802;BME280;3945;48.952;9.506;2023-03-21T04:11:42;98043.66;;;8.64;87.66
7802;BME280;3945;48.952;9.506;2023-03-21T04:14:08;98040.19;;;8.63;88.01
7802;BME280;3945;48.952;9.506;2023-03-21T04:16:36;98047.88;;;8.65;87.32
7802;BME280;3945;48.952;9.506;2023-03-21T04:19:03;98041.34;;;8.67;87.91
7802;BME280;3945;48.952;9.506;2023-03-21T04:21:29;98047.44;;;8.68;87.54
7802;BME280;3945;48.952;9.506;2023-03-21T04:23:55;98037.06;;;8.66;87.93
7802;BME280;3945;48.952;9.506;2023-03-21T04:26:22;98036.25;;;8.66;87.75
7802;BME280;3945;48.952;9.506;2023-03-21T04:28:48;98033.38;;;8.67;87.68
7802;BME280;3945;48.952;9.506;2023-03-21T04:31:15;98032.78;;;8.65;87.92
7802;BME280;3945;48.952;9.506;2023-03-21T04:33:43;98033.84;;;8.64;88.18
7802;BME280;3945;48.952;9.506;2023-03-21T04:36:12;98033.03;;;8.64;88.54
7802;BME280;3945;48.952;9.506;2023-03-21T04:38:49;98043.66;;;8.64;88.69
7802;BME280;3945;48.952;9.506;2023-03-21T04:41:15;98041.22;;;8.62;88.79
7802;BME280;3945;48.952;9.506;2023-03-21T04:43:41;98042.03;;;8.63;88.63
7802;BME280;3945;48.952;9.506;2023-03-21T04:46:08;98036.94;;;8.61;88.75
7802;BME280;3945;48.952;9.506;2023-03-21T04:48:34;98023.69;;;8.61;88.26
7802;BME280;3945;48.952;9.506;2023-03-21T04:51:03;98030.38;;;8.64;88.69
7802;BME280;3945;48.952;9.506;2023-03-21T04:53:29;98029.56;;;8.63;88.84
7802;BME280;3945;48.952;9.506;2023-03-21T04:55:55;98043.28;;;8.60;89.21
7802;BME280;3945;48.952;9.506;2023-03-21T04:58:22;98032.31;;;8.56;88.70
7802;BME280;3945;48.952;9.506;2023-03-21T05:00:49;98036.22;;;8.54;89.23
7802;BME280;3945;48.952;9.506;2023-03-21T05:03:17;98030.09;;;8.53;89.07
7802;BME280;3945;48.952;9.506;2023-03-21T05:05:46;98028.94;;;8.49;88.64
7802;BME280;3945;48.952;9.506;2023-03-21T05:08:14;98025.09;;;8.45;88.93
7802;BME280;3945;48.952;9.506;2023-03-21T05:10:40;98032.63;;;8.48;88.86
7802;BME280;3945;48.952;9.506;2023-03-21T05:13:07;98035.06;;;8.50;88.41
7802;BME280;3945;48.952;9.506;2023-03-21T05:15:33;98026.84;;;8.51;87.99
7802;BME280;3945;48.952;9.506;2023-03-21T05:18:05;98032.16;;;8.51;88.54
7802;BME280;3945;48.952;9.506;2023-03-21T05:20:38;98029.75;;;8.50;88.44
7802;BME280;3945;48.952;9.506;2023-03-21T05:23:07;98026.84;;;8.51;87.81
7802;BME280;3945;48.952;9.506;2023-03-21T05:25:36;98029.28;;;8.53;87.85
7802;BME280;3945;48.952;9.506;2023-03-21T05:28:02;98031.50;;;8.56;88.47
7802;BME280;3945;48.952;9.506;2023-03-21T05:30:29;98023.56;;;8.56;87.90
7802;BME280;3945;48.952;9.506;2023-03-21T05:32:55;98036.00;;;8.55;88.43
7802;BME280;3945;48.952;9.506;2023-03-21T05:35:22;98033.13;;;8.57;88.43
7802;BME280;3945;48.952;9.506;2023-03-21T05:37:48;98029.88;;;8.55;88.28
7802;BME280;3945;48.952;9.506;2023-03-21T05:40:14;98027.00;;;8.56;87.69
7802;BME280;3945;48.952;9.506;2023-03-21T05:42:42;98035.09;;;8.61;88.05
7802;BME280;3945;48.952;9.506;2023-03-21T05:45:09;98030.94;;;8.66;87.87
7802;BME280;3945;48.952;9.506;2023-03-21T05:47:35;98040.31;;;8.68;88.02
7802;BME280;3945;48.952;9.506;2023-03-21T05:50:01;98048.47;;;8.67;88.21
7802;BME280;3945;48.952;9.506;2023-03-21T05:52:28;98042.16;;;8.68;88.40
7802;BME280;3945;48.952;9.506;2023-03-21T05:54:54;98040.31;;;8.68;88.16
7802;BME280;3945;48.952;9.506;2023-03-21T05:57:20;98039.50;;;8.68;88.46
7802;BME280;3945;48.952;9.506;2023-03-21T05:59:48;98042.16;;;8.68;88.75
7802;BME280;3945;48.952;9.506;2023-03-21T06:02:15;98051.72;;;8.69;88.58
7802;BME280;3945;48.952;9.506;2023-03-21T06:04:41;98043.09;;;8.73;88.37
7802;BME280;3945;48.952;9.506;2023-03-21T06:07:07;98043.66;;;8.75;89.13
7802;BME280;3945;48.952;9.506;2023-03-21T06:09:34;98044.03;;;8.79;89.14
7802;BME280;3945;48.952;9.506;2023-03-21T06:12:00;98039.31;;;8.81;88.70
7802;BME280;3945;48.952;9.506;2023-03-21T06:14:27;98041.94;;;8.81;88.50
7802;BME280;3945;48.952;9.506;2023-03-21T06:16:54;98043.34;;;8.83;88.29
7802;BME280;3945;48.952;9.506;2023-03-21T06:19:21;98045.53;;;8.86;88.84
7802;BME280;3945;48.952;9.506;2023-03-21T06:21:47;98044.88;;;8.91;88.08
7802;BME280;3945;48.952;9.506;2023-03-21T06:24:13;98042.34;;;8.96;88.50
7802;BME280;3945;48.952;9.506;2023-03-21T06:26:40;98051.00;;;9.03;87.94
7802;BME280;3945;48.952;9.506;2023-03-21T06:29:07;98038.56;;;9.04;88.34
7802;BME280;3945;48.952;9.506;2023-03-21T06:31:33;98049.75;;;9.06;88.67
7802;BME280;3945;48.952;9.506;2023-03-21T06:34:01;98047.44;;;9.09;88.27
7802;BME280;3945;48.952;9.506;2023-03-21T06:36:27;98047.22;;;9.11;88.35
7802;BME280;3945;48.952;9.506;2023-03-21T06:38:54;98045.16;;;9.13;88.46
7802;BME280;3945;48.952;9.506;2023-03-21T06:41:20;98042.84;;;9.16;88.69
7802;BME280;3945;48.952;9.506;2023-03-21T06:43:46;98048.28;;;9.21;88.47
7802;BME280;3945;48.952;9.506;2023-03-21T06:46:13;98044.50;;;9.29;88.51
7802;BME280;3945;48.952;9.506;2023-03-21T06:48:39;98044.13;;;9.37;88.25
7802;BME280;3945;48.952;9.506;2023-03-21T06:51:10;98049.47;;;9.49;88.66
7802;BME280;3945;48.952;9.506;2023-03-21T06:53:36;98052.34;;;9.59;89.26
7802;BME280;3945;48.952;9.506;2023-03-21T06:56:03;98047.16;;;9.64;88.90
7802;BME280;3945;48.952;9.506;2023-03-21T06:58:29;98055.59;;;9.72;88.47
7802;BME280;3945;48.952;9.506;2023-03-21T07:00:57;98042.41;;;9.77;88.39
7802;BME280;3945;48.952;9.506;2023-03-21T07:03:23;98047.94;;;9.88;87.93
7802;BME280;3945;48.952;9.506;2023-03-21T07:05:49;98050.72;;;9.93;87.20
7802;BME280;3945;48.952;9.506;2023-03-21T07:08:17;98049.19;;;9.97;86.92
7802;BME280;3945;48.952;9.506;2023-03-21T07:10:43;98057.75;;;9.99;86.63
7802;BME280;3945;48.952;9.506;2023-03-21T07:13:10;98050.78;;;10.09;86.26
7802;BME280;3945;48.952;9.506;2023-03-21T07:15:37;98055.97;;;10.16;85.95
7802;BME280;3945;48.952;9.506;2023-03-21T07:18:05;98042.13;;;10.26;85.97
7802;BME280;3945;48.952;9.506;2023-03-21T07:20:32;98043.97;;;10.37;86.36
7802;BME280;3945;48.952;9.506;2023-03-21T07:22:58;98044.13;;;10.47;85.22
7802;BME280;3945;48.952;9.506;2023-03-21T07:25:26;98035.47;;;10.51;84.75
7802;BME280;3945;48.952;9.506;2023-03-21T07:27:53;98037.72;;;10.60;84.75
7802;BME280;3945;48.952;9.506;2023-03-21T07:30:19;98039.19;;;10.67;82.80
7802;BME280;3945;48.952;9.506;2023-03-21T07:32:46;98038.25;;;10.73;81.67
7802;BME280;3945;48.952;9.506;2023-03-21T07:35:13;98040.78;;;10.80;80.31
7802;BME280;3945;48.952;9.506;2023-03-21T07:37:41;98038.50;;;10.88;78.95
7802;BME280;3945;48.952;9.506;2023-03-21T07:40:08;98039.44;;;10.94;77.99
7802;BME280;3945;48.952;9.506;2023-03-21T07:42:36;98035.56;;;11.02;76.98
7802;BME280;3945;48.952;9.506;2023-03-21T07:45:02;98032.00;;;11.13;76.60
7802;BME280;3945;48.952;9.506;2023-03-21T07:47:30;98038.31;;;11.23;74.53
7802;BME280;3945;48.952;9.506;2023-03-21T07:49:57;98038.41;;;11.28;74.72
7802;BME280;3945;48.952;9.506;2023-03-21T07:52:23;98040.41;;;11.38;75.91
7802;BME280;3945;48.952;9.506;2023-03-21T07:54:49;98034.41;;;11.48;74.41
7802;BME280;3945;48.952;9.506;2023-03-21T07:57:16;98043.63;;;11.57;75.30
7802;BME280;3945;48.952;9.506;2023-03-21T07:59:43;98043.28;;;11.70;74.29
7802;BME280;3945;48.952;9.506;2023-03-21T08:02:11;98053.09;;;11.81;74.22
7802;BME280;3945;48.952;9.506;2023-03-21T08:04:38;98044.47;;;11.96;73.42
7802;BME280;3945;48.952;9.506;2023-03-21T08:07:04;98046.53;;;12.10;73.75
7802;BME280;3945;48.952;9.506;2023-03-21T08:09:31;98045.66;;;12.27;72.71
7802;BME280;3945;48.952;9.506;2023-03-21T08:11:57;98040.75;;;12.40;72.86
7802;BME280;3945;48.952;9.506;2023-03-21T08:14:23;98043.34;;;12.57;71.08
7802;BME280;3945;48.952;9.506;2023-03-21T08:16:51;98042.88;;;12.87;71.10
7802;BME280;3945;48.952;9.506;2023-03-21T08:19:17;98036.94;;;13.39;70.41
7802;BME280;3945;48.952;9.506;2023-03-21T08:21:45;98030.91;;;13.95;69.67
7802;BME280;3945;48.952;9.506;2023-03-21T08:24:12;98033.81;;;14.46;67.46
7802;BME280;3945;48.952;9.506;2023-03-21T08:26:38;98044.38;;;14.93;65.95
7802;BME280;3945;48.952;9.506;2023-03-21T08:29:04;98034.22;;;15.36;62.63
7802;BME280;3945;48.952;9.506;2023-03-21T08:31:31;98040.13;;;15.68;59.19
7802;BME280;3945;48.952;9.506;2023-03-21T08:33:59;98036.28;;;15.99;59.37
7802;BME280;3945;48.952;9.506;2023-03-21T08:36:25;98033.00;;;16.28;59.44
7802;BME280;3945;48.952;9.506;2023-03-21T08:38:51;98033.16;;;16.62;56.49
7802;BME280;3945;48.952;9.506;2023-03-21T08:41:21;98029.28;;;16.78;54.32
7802;BME280;3945;48.952;9.506;2023-03-21T08:43:48;98023.50;;;17.00;54.11
7802;BME280;3945;48.952;9.506;2023-03-21T08:46:14;98018.31;;;17.08;53.39
7802;BME280;3945;48.952;9.506;2023-03-21T08:48:41;98014.22;;;17.21;54.07
7802;BME280;3945;48.952;9.506;2023-03-21T08:51:08;98021.91;;;17.33;54.12
7802;BME280;3945;48.952;9.506;2023-03-21T08:53:35;98015.25;;;17.54;52.73
7802;BME280;3945;48.952;9.506;2023-03-21T08:56:01;98009.94;;;17.49;51.54
7802;BME280;3945;48.952;9.506;2023-03-21T08:58:28;98005.84;;;17.51;52.03
7802;BME280;3945;48.952;9.506;2023-03-21T09:00:54;98007.25;;;17.49;53.49
7802;BME280;3945;48.952;9.506;2023-03-21T09:03:20;98005.19;;;17.70;52.59
7802;BME280;3945;48.952;9.506;2023-03-21T09:05:47;98002.00;;;17.91;51.70
7802;BME280;3945;48.952;9.506;2023-03-21T09:08:15;98002.22;;;18.19;50.77
7802;BME280;3945;48.952;9.506;2023-03-21T09:10:42;98004.47;;;18.30;51.52
7802;BME280;3945;48.952;9.506;2023-03-21T09:13:08;97997.25;;;18.50;50.95
7802;BME280;3945;48.952;9.506;2023-03-21T09:15:34;97998.81;;;18.56;50.67
7802;BME280;3945;48.952;9.506;2023-03-21T09:18:01;97998.88;;;18.69;50.35
7802;BME280;3945;48.952;9.506;2023-03-21T09:20:37;98000.00;;;18.87;49.99
7802;BME280;3945;48.952;9.506;2023-03-21T09:23:04;98000.97;;;19.10;49.01
7802;BME280;3945;48.952;9.506;2023-03-21T09:25:32;98000.72;;;19.25;48.95
7802;BME280;3945;48.952;9.506;2023-03-21T09:27:59;97994.25;;;19.26;50.13
7802;BME280;3945;48.952;9.506;2023-03-21T09:30:26;98005.25;;;19.30;49.00
7802;BME280;3945;48.952;9.506;2023-03-21T09:32:53;98002.97;;;19.37;47.90
7802;BME280;3945;48.952;9.506;2023-03-21T09:35:20;98001.44;;;19.49;47.45
7802;BME280;3945;48.952;9.506;2023-03-21T09:37:47;97998.06;;;19.58;49.69
7802;BME280;3945;48.952;9.506;2023-03-21T09:40:16;97999.03;;;19.48;47.84
7802;BME280;3945;48.952;9.506;2023-03-21T09:42:54;98003.41;;;19.44;46.28
7802;BME280;3945;48.952;9.506;2023-03-21T09:45:28;97992.56;;;19.63;46.16
7802;BME280;3945;48.952;9.506;2023-03-21T09:47:58;97991.47;;;19.77;47.48
7802;BME280;3945;48.952;9.506;2023-03-21T09:50:28;97997.59;;;19.97;46.77
7802;BME280;3945;48.952;9.506;2023-03-21T09:52:57;97990.78;;;20.13;47.39
7802;BME280;3945;48.952;9.506;2023-03-21T09:55:28;97993.09;;;20.06;45.91
7802;BME280;3945;48.952;9.506;2023-03-21T09:58:03;97992.09;;;19.88;46.43
7802;BME280;3945;48.952;9.506;2023-03-21T10:00:34;97990.41;;;19.92;46.65
7802;BME280;3945;48.952;9.506;2023-03-21T10:03:05;97982.19;;;19.83;45.27
7802;BME280;3945;48.952;9.506;2023-03-21T10:05:39;97984.47;;;19.90;46.22
7802;BME280;3945;48.952;9.506;2023-03-21T10:08:13;97982.19;;;19.83;44.63
7802;BME280;3945;48.952;9.506;2023-03-21T10:10:44;97977.47;;;19.75;45.24
7802;BME280;3945;48.952;9.506;2023-03-21T10:13:16;97977.47;;;19.75;46.20
7802;BME280;3945;48.952;9.506;2023-03-21T10:15:45;97974.06;;;19.56;45.01
7802;BME280;3945;48.952;9.506;2023-03-21T10:18:19;97962.66;;;19.27;44.44
7802;BME280;3945;48.952;9.506;2023-03-21T10:20:47;97967.59;;;19.06;45.40
7802;BME280;3945;48.952;9.506;2023-03-21T10:23:16;97966.88;;;19.00;46.07
7802;BME280;3945;48.952;9.506;2023-03-21T10:25:46;97961.81;;;18.80;45.07
7802;BME280;3945;48.952;9.506;2023-03-21T10:28:18;97953.63;;;18.66;47.38
7802;BME280;3945;48.952;9.506;2023-03-21T10:30:48;97957.22;;;18.62;46.95
7802;BME280;3945;48.952;9.506;2023-03-21T10:33:17;97957.28;;;18.76;46.87
7802;BME280;3945;48.952;9.506;2023-03-21T10:35:49;97949.25;;;18.89;47.31
7802;BME280;3945;48.952;9.506;2023-03-21T10:38:19;97956.66;;;18.97;46.05
7802;BME280;3945;48.952;9.506;2023-03-21T10:40:46;97949.19;;;18.94;46.04
7802;BME280;3945;48.952;9.506;2023-03-21T10:43:31;97942.13;;;19.12;45.13
7802;BME280;3945;48.952;9.506;2023-03-21T10:46:05;97940.88;;;19.23;44.64
7802;BME280;3945;48.952;9.506;2023-03-21T10:48:34;97937.69;;;19.35;46.22
7802;BME280;3945;48.952;9.506;2023-03-21T10:51:00;97941.91;;;19.41;46.71
7802;BME280;3945;48.952;9.506;2023-03-21T10:53:28;97938.16;;;19.56;45.02
7802;BME280;3945;48.952;9.506;2023-03-21T10:55:55;97936.16;;;19.75;45.51
7802;BME280;3945;48.952;9.506;2023-03-21T10:58:24;97933.25;;;19.85;45.31
7802;BME280;3945;48.952;9.506;2023-03-21T11:00:53;97941.47;;;19.94;44.49
7802;BME280;3945;48.952;9.506;2023-03-21T11:03:22;97933.16;;;20.04;43.85
7802;BME280;3945;48.952;9.506;2023-03-21T11:05:51;97932.75;;;20.10;41.63
7802;BME280;3945;48.952;9.506;2023-03-21T11:08:18;97934.75;;;20.05;42.79
7802;BME280;3945;48.952;9.506;2023-03-21T11:10:50;97933.75;;;20.01;44.63
7802;BME280;3945;48.952;9.506;2023-03-21T11:13:17;97937.13;;;20.20;43.81
7802;BME280;3945;48.952;9.506;2023-03-21T11:15:51;97936.56;;;20.37;42.90
7802;BME280;3945;48.952;9.506;2023-03-21T11:18:18;97924.81;;;20.41;42.80
7802;BME280;3945;48.952;9.506;2023-03-21T11:20:48;97927.63;;;20.22;42.52
7802;BME280;3945;48.952;9.506;2023-03-21T11:23:15;97930.63;;;20.21;43.32
7802;BME280;3945;48.952;9.506;2023-03-21T11:25:41;97932.03;;;20.18;42.76
7802;BME280;3945;48.952;9.506;2023-03-21T11:28:10;97924.56;;;20.02;41.00
7802;BME280;3945;48.952;9.506;2023-03-21T11:30:37;97928.25;;;20.06;42.80
7802;BME280;3945;48.952;9.506;2023-03-21T11:33:15;97918.75;;;20.08;43.56
7802;BME280;3945;48.952;9.506;2023-03-21T11:35:43;97917.25;;;20.02;43.07
7802;BME280;3945;48.952;9.506;2023-03-21T11:38:23;97915.16;;;19.99;42.98
7802;BME280;3945;48.952;9.506;2023-03-21T11:40:51;97914.06;;;20.00;46.04
7802;BME280;3945;48.952;9.506;2023-03-21T11:43:25;97911.66;;;19.71;44.15
7802;BME280;3945;48.952;9.506;2023-03-21T11:45:55;97912.66;;;19.48;44.12
7802;BME280;3945;48.952;9.506;2023-03-21T11:48:23;97911.09;;;19.28;44.18
7802;BME280;3945;48.952;9.506;2023-03-21T11:50:49;97903.28;;;19.27;45.26
7802;BME280;3945;48.952;9.506;2023-03-21T11:53:24;97900.06;;;19.25;45.98
7802;BME280;3945;48.952;9.506;2023-03-21T11:55:56;97896.56;;;19.24;46.13
7802;BME280;3945;48.952;9.506;2023-03-21T11:58:30;97896.50;;;19.29;45.76
7802;BME280;3945;48.952;9.506;2023-03-21T12:01:04;97894.19;;;19.23;46.27
7802;BME280;3945;48.952;9.506;2023-03-21T12:04:06;97895.28;;;19.08;45.54
7802;BME280;3945;48.952;9.506;2023-03-21T12:06:43;97882.22;;;18.96;45.58
7802;BME280;3945;48.952;9.506;2023-03-21T12:09:22;97877.13;;;18.95;47.11
7802;BME280;3945;48.952;9.506;2023-03-21T12:11:59;97867.34;;;18.85;46.41
7802;BME280;3945;48.952;9.506;2023-03-21T12:14:35;97865.84;;;18.60;46.05
7802;BME280;3945;48.952;9.506;2023-03-21T12:17:11;97864.91;;;18.51;47.54
7802;BME280;3945;48.952;9.506;2023-03-21T12:19:53;97857.28;;;18.58;48.51
7802;BME280;3945;48.952;9.506;2023-03-21T12:22:27;97856.00;;;18.51;46.20
7802;BME280;3945;48.952;9.506;2023-03-21T12:25:04;97858.19;;;18.30;45.84
7802;BME280;3945;48.952;9.506;2023-03-21T12:27:39;97855.50;;;18.30;47.46
7802;BME280;3945;48.952;9.506;2023-03-21T12:30:18;97850.53;;;18.37;47.63
7802;BME280;3945;48.952;9.506;2023-03-21T12:32:59;97846.69;;;18.24;46.69
7802;BME280;3945;48.952;9.506;2023-03-21T12:35:38;97842.56;;;18.13;47.80
7802;BME280;3945;48.952;9.506;2023-03-21T12:38:13;97847.22;;;18.08;48.71
7802;BME280;3945;48.952;9.506;2023-03-21T12:40:48;97844.00;;;18.06;47.61
7802;BME280;3945;48.952;9.506;2023-03-21T12:43:23;97837.81;;;18.05;48.63
7802;BME280;3945;48.952;9.506;2023-03-21T12:45:54;97835.34;;;17.90;48.20
7802;BME280;3945;48.952;9.506;2023-03-21T12:48:29;97830.22;;;17.88;48.11
7802;BME280;3945;48.952;9.506;2023-03-21T12:51:01;97834.97;;;17.78;48.89
7802;BME280;3945;48.952;9.506;2023-03-21T12:53:38;97837.25;;;17.66;48.19
7802;BME280;3945;48.952;9.506;2023-03-21T12:56:14;97831.75;;;17.52;48.90
7802;BME280;3945;48.952;9.506;2023-03-21T12:58:45;97835.31;;;17.47;49.19
7802;BME280;3945;48.952;9.506;2023-03-21T13:01:14;97834.50;;;17.47;49.74
7802;BME280;3945;48.952;9.506;2023-03-21T13:03:45;97832.97;;;17.41;50.67
7802;BME280;3945;48.952;9.506;2023-03-21T13:06:17;97828.69;;;17.40;49.28
7802;BME280;3945;48.952;9.506;2023-03-21T13:08:48;97828.59;;;17.45;50.89
7802;BME280;3945;48.952;9.506;2023-03-21T13:11:19;97821.56;;;17.49;49.82
7802;BME280;3945;48.952;9.506;2023-03-21T13:13:51;97822.84;;;17.56;49.77
7802;BME280;3945;48.952;9.506;2023-03-21T13:16:20;97825.72;;;17.60;49.47
7802;BME280;3945;48.952;9.506;2023-03-21T13:18:55;97819.00;;;17.63;50.58
7802;BME280;3945;48.952;9.506;2023-03-21T13:21:35;97811.22;;;17.61;49.27
7802;BME280;3945;48.952;9.506;2023-03-21T13:24:04;97818.47;;;17.61;49.33
7802;BME280;3945;48.952;9.506;2023-03-21T13:26:44;97809.53;;;17.65;49.41
7802;BME280;3945;48.952;9.506;2023-03-21T13:29:21;97804.91;;;17.71;49.68
7802;BME280;3945;48.952;9.506;2023-03-21T13:31:50;97804.13;;;17.70;48.94
7802;BME280;3945;48.952;9.506;2023-03-21T13:34:20;97797.41;;;17.68;49.34
7802;BME280;3945;48.952;9.506;2023-03-21T13:36:48;97798.00;;;17.65;49.21
7802;BME280;3945;48.952;9.506;2023-03-21T13:39:18;97798.03;;;17.60;48.64